Time;durP1;ratioP1;P1;durP2;ratioP2;P2;SDS_P1;SDS_P2;PMS_P1;PMS_P2;Temp;Humidity;BMP_temperature;BMP_pressure;BME280_temperature;BME280_humidity;BME280_pressure;Samples;Min_cycle;Max_cycle;Signal;HPM_P1;HPM_P2
2023/07/03 00:00:12;;;;;;;12.00;9.95;;;23.50;68.40;;;;;;5028123;28;20089;-51
2023/07/03 00:02:41;;;;;;;12.05;10.32;;;23.40;68.40;;;;;;5026445;28;20037;-51
2023/07/03 00:05:08;;;;;;;10.93;9.65;;;23.50;68.20;;;;;;5027357;28;20026;-51
2023/07/03 00:07:34;;;;;;;11.70;9.73;;;23.40;68.30;;;;;;5015010;28;20038;-52
2023/07/03 00:10:00;;;;;;;11.35;9.43;;;23.40;68.30;;;;;;5021083;28;20034;-51
2023/07/03 00:12:25;;;;;;;10.70;9.48;;;23.40;69.30;;;;;;5026777;28;20398;-51
2023/07/03 00:14:51;;;;;;;13.02;9.88;;;23.40;68.80;;;;;;5027871;28;20085;-50
2023/07/03 00:17:16;;;;;;;9.98;8.88;;;23.40;68.90;;;;;;5026336;28;20030;-52
2023/07/03 00:19:42;;;;;;;12.32;8.93;;;23.40;68.50;;;;;;5026349;28;20052;-51
2023/07/03 00:22:07;;;;;;;10.85;8.65;;;23.30;68.10;;;;;;5019433;28;20034;-51
2023/07/03 00:24:33;;;;;;;10.23;9.07;;;23.30;68.00;;;;;;5020048;28;20030;-51
2023/07/03 00:26:59;;;;;;;11.13;8.70;;;23.30;67.80;;;;;;5027638;28;20037;-51
2023/07/03 00:29:24;;;;;;;10.65;9.15;;;23.30;67.80;;;;;;5016869;28;20075;-51
2023/07/03 00:31:50;;;;;;;13.82;8.88;;;23.20;67.90;;;;;;5027131;28;20052;-51
2023/07/03 00:34:16;;;;;;;10.30;8.65;;;23.20;67.90;;;;;;5025458;28;20029;-51
2023/07/03 00:36:42;;;;;;;10.20;8.68;;;23.20;67.90;;;;;;5026233;28;20030;-51
2023/07/03 00:39:08;;;;;;;12.75;9.10;;;23.20;68.10;;;;;;5026528;28;20037;-51
2023/07/03 00:41:34;;;;;;;12.40;9.05;;;23.20;68.10;;;;;;5025963;28;20034;-51
2023/07/03 00:44:00;;;;;;;11.63;8.40;;;23.20;68.00;;;;;;5027392;28;20025;-51
2023/07/03 00:46:25;;;;;;;10.57;8.23;;;23.20;68.00;;;;;;5025659;28;20040;-51
2023/07/03 00:48:51;;;;;;;10.98;8.30;;;23.10;67.80;;;;;;5026478;28;20022;-51
2023/07/03 00:51:16;;;;;;;10.43;8.32;;;23.10;68.00;;;;;;5007727;28;20037;-51
2023/07/03 00:53:43;;;;;;;11.10;8.90;;;23.10;67.90;;;;;;5020016;28;20057;-51
2023/07/03 00:56:08;;;;;;;10.00;8.27;;;23.10;67.90;;;;;;5025908;28;20057;-51
2023/07/03 00:58:34;;;;;;;9.77;7.93;;;23.10;68.00;;;;;;5026331;28;20037;-51
2023/07/03 01:01:27;;;;;;;9.82;7.82;;;23.00;67.90;;;;;;5012578;28;20041;-51
2023/07/03 01:04:00;;;;;;;9.15;8.00;;;23.00;68.00;;;;;;4992207;28;20034;-51
2023/07/03 01:06:28;;;;;;;12.05;8.43;;;23.00;68.00;;;;;;5022488;28;20030;-51
2023/07/03 01:08:56;;;;;;;16.33;7.85;;;23.00;68.00;;;;;;5006625;28;20029;-51
2023/07/03 01:11:21;;;;;;;9.68;7.70;;;23.00;68.10;;;;;;5016449;28;20053;-51
2023/07/03 01:13:47;;;;;;;12.43;8.35;;;22.90;68.10;;;;;;5006620;28;20041;-51
2023/07/03 01:16:12;;;;;;;9.73;8.23;;;22.90;67.90;;;;;;4991027;28;20049;-51
2023/07/03 01:18:38;;;;;;;9.98;7.68;;;22.90;68.10;;;;;;5013156;28;20048;-51
2023/07/03 01:21:24;;;;;;;9.32;7.85;;;22.90;68.10;;;;;;5025628;28;20034;-51
2023/07/03 01:23:53;;;;;;;11.23;8.48;;;22.90;68.10;;;;;;5009569;28;20022;-51
2023/07/03 01:26:19;;;;;;;10.40;8.15;;;22.90;68.60;;;;;;5025221;28;20036;-51
2023/07/03 01:28:45;;;;;;;10.77;8.00;;;22.90;68.40;;;;;;5020055;28;20465;-51
2023/07/03 01:31:11;;;;;;;10.95;7.88;;;22.80;68.20;;;;;;4997862;28;20037;-51
2023/07/03 01:33:40;;;;;;;12.80;8.32;;;22.80;68.00;;;;;;5025279;28;20489;-52
2023/07/03 01:36:05;;;;;;;10.95;8.10;;;22.80;68.00;;;;;;5008741;28;20046;-51
2023/07/03 01:38:31;;;;;;;11.32;7.75;;;22.80;68.20;;;;;;5017821;28;20034;-51
2023/07/03 01:40:59;;;;;;;9.32;7.28;;;22.80;68.20;;;;;;5009031;28;20034;-52
2023/07/03 01:43:25;;;;;;;10.93;7.40;;;22.80;68.20;;;;;;5008875;28;20034;-51
2023/07/03 01:45:51;;;;;;;9.80;7.13;;;22.70;68.20;;;;;;5025653;28;20056;-51
2023/07/03 01:48:16;;;;;;;11.35;7.32;;;22.70;68.20;;;;;;5024991;28;20034;-51
2023/07/03 01:50:43;;;;;;;10.80;7.80;;;22.70;68.20;;;;;;5024376;28;20036;-51
2023/07/03 01:53:24;;;;;;;10.48;7.78;;;22.70;68.20;;;;;;5021581;28;20026;-51
2023/07/03 01:56:05;;;;;;;9.82;7.22;;;22.60;68.20;;;;;;5025548;28;20042;-51
2023/07/03 01:58:50;;;;;;;11.57;8.07;;;22.70;68.40;;;;;;5026047;28;20025;-51
2023/07/03 02:01:26;;;;;;;9.95;7.40;;;22.60;69.00;;;;;;5016220;28;20094;-52
2023/07/03 02:03:59;;;;;;;12.45;7.90;;;22.60;68.50;;;;;;5017993;28;20033;-51
2023/07/03 02:06:33;;;;;;;12.02;7.97;;;22.60;68.50;;;;;;5024941;28;20030;-51
2023/07/03 02:08:59;;;;;;;10.38;7.75;;;22.60;68.40;;;;;;5023874;28;20030;-52
2023/07/03 02:11:24;;;;;;;11.63;8.05;;;22.60;68.50;;;;;;5025819;28;20034;-51
2023/07/03 02:13:50;;;;;;;9.82;8.23;;;22.60;68.60;;;;;;5012351;28;20039;-51
2023/07/03 02:16:16;;;;;;;10.35;7.55;;;22.60;68.80;;;;;;5025913;28;20026;-51
2023/07/03 02:18:47;;;;;;;9.20;7.13;;;22.60;68.80;;;;;;5016614;28;20026;-51
2023/07/03 02:21:13;;;;;;;10.05;7.55;;;22.60;68.90;;;;;;5024265;28;20049;-51
2023/07/03 02:23:39;;;;;;;11.30;7.95;;;22.60;68.60;;;;;;5024335;28;20116;-51
2023/07/03 02:26:05;;;;;;;8.70;7.72;;;22.60;68.50;;;;;;5005442;28;20057;-52
2023/07/03 02:28:30;;;;;;;10.68;7.85;;;22.60;68.50;;;;;;5021671;28;20018;-51
2023/07/03 02:30:56;;;;;;;10.45;7.35;;;22.60;68.60;;;;;;5013136;28;20076;-52
2023/07/03 02:33:21;;;;;;;10.65;7.15;;;22.50;68.50;;;;;;5014503;28;20031;-51
2023/07/03 02:35:47;;;;;;;10.02;6.88;;;22.50;68.60;;;;;;5005344;28;20046;-51
2023/07/03 02:38:14;;;;;;;10.75;7.60;;;22.50;68.70;;;;;;5019898;28;20041;-51
2023/07/03 02:40:40;;;;;;;10.93;7.85;;;22.50;68.60;;;;;;5020787;28;20052;-52
2023/07/03 02:43:05;;;;;;;9.40;7.25;;;22.50;68.70;;;;;;5017896;28;20026;-51
2023/07/03 02:45:38;;;;;;;9.45;7.53;;;22.50;68.80;;;;;;5019919;28;20053;-51
2023/07/03 02:48:05;;;;;;;8.90;6.78;;;22.40;68.70;;;;;;5029559;28;20382;-51
2023/07/03 02:50:30;;;;;;;10.68;7.40;;;22.40;68.70;;;;;;5029011;28;20033;-51
2023/07/03 02:52:56;;;;;;;11.93;7.80;;;22.40;68.80;;;;;;5018665;28;20481;-51
2023/07/03 02:55:21;;;;;;;8.88;6.78;;;22.40;68.90;;;;;;5010305;28;20039;-51
2023/07/03 02:57:47;;;;;;;10.35;7.38;;;22.40;69.00;;;;;;5022370;28;20033;-51
2023/07/03 03:00:13;;;;;;;9.20;6.97;;;22.40;69.00;;;;;;5028921;28;20104;-52
2023/07/03 03:02:38;;;;;;;11.55;7.55;;;22.40;69.00;;;;;;5012162;28;20018;-51
2023/07/03 03:05:05;;;;;;;11.38;7.47;;;22.30;68.90;;;;;;5012718;28;20033;-51
2023/07/03 03:07:30;;;;;;;10.38;7.15;;;22.40;69.00;;;;;;5029266;28;20022;-51
2023/07/03 03:09:56;;;;;;;10.80;7.35;;;22.30;69.00;;;;;;5028600;28;20418;-51
2023/07/03 03:12:21;;;;;;;10.18;6.75;;;22.30;69.10;;;;;;5027945;28;20033;-51
2023/07/03 03:14:47;;;;;;;10.18;7.50;;;22.30;69.10;;;;;;5027648;28;20038;-51
2023/07/03 03:17:12;;;;;;;9.60;7.15;;;22.30;69.20;;;;;;5004296;28;20046;-52
2023/07/03 03:19:38;;;;;;;10.50;7.35;;;22.30;69.90;;;;;;5008386;28;20030;-52
2023/07/03 03:22:04;;;;;;;9.98;7.32;;;22.30;69.30;;;;;;4997926;28;20040;-51
2023/07/03 03:24:29;;;;;;;13.48;7.45;;;22.20;69.20;;;;;;5027552;28;20034;-51
2023/07/03 03:26:55;;;;;;;9.32;6.70;;;22.20;69.30;;;;;;5028946;28;20022;-51
2023/07/03 03:29:20;;;;;;;13.63;7.72;;;22.30;69.30;;;;;;5028727;28;20030;-51
2023/07/03 03:31:46;;;;;;;9.13;7.38;;;22.30;69.40;;;;;;5028207;28;20097;-51
2023/07/03 03:34:12;;;;;;;9.52;7.40;;;22.30;69.30;;;;;;5027505;28;20098;-51
2023/07/03 03:36:38;;;;;;;10.52;7.15;;;22.20;70.00;;;;;;5027328;28;20121;-51
2023/07/03 03:39:04;;;;;;;11.98;7.50;;;22.20;69.40;;;;;;5028383;28;20033;-51
2023/07/03 03:41:30;;;;;;;8.88;6.80;;;22.20;69.50;;;;;;5026679;28;20410;-51
2023/07/03 03:43:55;;;;;;;8.43;7.07;;;22.20;69.50;;;;;;5027018;28;20026;-51
2023/07/03 03:46:21;;;;;;;10.02;7.00;;;22.20;69.50;;;;;;5007432;28;20431;-54
2023/07/03 03:48:46;;;;;;;10.30;7.63;;;22.10;69.50;;;;;;5017774;28;20068;-51
2023/07/03 03:51:12;;;;;;;10.05;7.13;;;22.20;69.60;;;;;;5018230;28;20391;-51
2023/07/03 03:53:38;;;;;;;9.27;6.78;;;22.10;69.50;;;;;;5016527;28;20118;-51
2023/07/03 03:56:04;;;;;;;12.48;7.50;;;22.20;69.60;;;;;;5025249;28;20513;-51
2023/07/03 03:58:30;;;;;;;9.88;7.20;;;22.20;69.60;;;;;;5028282;28;20042;-51
2023/07/03 04:00:55;;;;;;;8.80;7.07;;;22.20;69.80;;;;;;5027058;28;20404;-51
2023/07/03 04:03:21;;;;;;;10.32;7.07;;;22.20;70.00;;;;;;5010268;28;20034;-51
2023/07/03 04:05:47;;;;;;;11.30;7.70;;;22.20;69.90;;;;;;5026452;28;20042;-51
2023/07/03 04:08:12;;;;;;;9.27;7.00;;;22.20;69.70;;;;;;5026008;28;20054;-51
2023/07/03 04:10:38;;;;;;;8.45;6.47;;;22.10;69.70;;;;;;5027710;28;20049;-52
2023/07/03 04:13:04;;;;;;;9.85;6.70;;;22.10;69.90;;;;;;5026118;28;20049;-51
2023/07/03 04:15:30;;;;;;;10.77;6.45;;;22.10;69.90;;;;;;5026708;28;20034;-51
2023/07/03 04:17:56;;;;;;;9.25;7.13;;;22.10;70.00;;;;;;5026511;28;20040;-51
2023/07/03 04:20:21;;;;;;;10.32;7.22;;;22.10;70.00;;;;;;5009451;28;20114;-51
2023/07/03 04:22:47;;;;;;;11.75;7.35;;;22.10;70.00;;;;;;5019131;28;20029;-51
2023/07/03 04:25:13;;;;;;;11.52;7.25;;;22.10;70.10;;;;;;5027734;28;20042;-51
2023/07/03 04:27:39;;;;;;;11.73;7.63;;;22.10;70.20;;;;;;5027199;28;20030;-51
2023/07/03 04:30:05;;;;;;;12.65;7.32;;;22.10;70.90;;;;;;5026601;28;20041;-52
2023/07/03 04:32:30;;;;;;;11.40;6.57;;;22.00;70.20;;;;;;5028047;28;20061;-51
2023/07/03 04:34:57;;;;;;;11.57;6.85;;;22.00;70.20;;;;;;5025812;28;20026;-51
2023/07/03 04:37:26;;;;;;;10.43;7.07;;;22.00;70.20;;;;;;5026354;28;20105;-51
2023/07/03 04:39:52;;;;;;;8.75;6.63;;;22.00;70.30;;;;;;5016206;28;20560;-51
2023/07/03 04:42:18;;;;;;;10.10;6.60;;;22.00;70.30;;;;;;5027270;28;20065;-51
2023/07/03 04:44:47;;;;;;;9.38;7.28;;;22.00;70.30;;;;;;5010557;28;20037;-51
2023/07/03 04:47:15;;;;;;;13.07;6.70;;;22.00;70.40;;;;;;5026082;28;20029;-51
2023/07/03 04:49:41;;;;;;;11.25;6.78;;;22.00;70.40;;;;;;5025540;28;20034;-51
2023/07/03 04:52:07;;;;;;;8.55;6.55;;;22.00;70.50;;;;;;5026657;28;20042;-51
2023/07/03 04:54:32;;;;;;;9.75;7.38;;;22.10;70.50;;;;;;5022091;28;20036;-51
2023/07/03 04:56:58;;;;;;;10.93;6.93;;;22.00;70.60;;;;;;5027150;28;20049;-51
2023/07/03 04:59:23;;;;;;;9.68;6.93;;;22.00;70.70;;;;;;5025975;28;20058;-51
2023/07/03 05:01:49;;;;;;;10.13;6.93;;;22.00;70.80;;;;;;5009090;28;20037;-51
2023/07/03 05:04:14;;;;;;;8.07;6.65;;;22.00;70.80;;;;;;5026652;28;20026;-51
2023/07/03 05:06:40;;;;;;;11.18;6.63;;;22.00;70.70;;;;;;5016202;28;20022;-51
2023/07/03 05:09:05;;;;;;;10.30;7.07;;;22.00;70.70;;;;;;5027071;28;20085;-51
2023/07/03 05:11:32;;;;;;;14.70;7.50;;;22.00;70.50;;;;;;5015458;28;20034;-51
2023/07/03 05:13:58;;;;;;;9.20;6.82;;;22.00;70.40;;;;;;5023740;28;20030;-52
2023/07/03 05:16:23;;;;;;;9.35;6.80;;;22.00;70.50;;;;;;5013242;28;20040;-52
2023/07/03 05:18:49;;;;;;;9.48;6.68;;;22.00;70.40;;;;;;5026853;28;20060;-50
2023/07/03 05:21:15;;;;;;;10.15;7.30;;;22.00;70.50;;;;;;5027391;28;20065;-52
2023/07/03 05:23:40;;;;;;;12.75;7.15;;;22.00;70.50;;;;;;5008869;28;20030;-51
2023/07/03 05:26:06;;;;;;;11.32;7.03;;;22.00;70.60;;;;;;5024476;28;20073;-51
2023/07/03 05:28:31;;;;;;;12.05;7.35;;;22.00;70.60;;;;;;5025253;28;20018;-51
2023/07/03 05:30:57;;;;;;;11.60;6.90;;;22.00;70.60;;;;;;5026037;28;20041;-51
2023/07/03 05:33:23;;;;;;;11.38;7.05;;;22.00;70.60;;;;;;5024376;28;20030;-51
2023/07/03 05:35:49;;;;;;;8.55;6.65;;;22.00;70.80;;;;;;5022371;28;20070;-51
2023/07/03 05:38:14;;;;;;;11.55;6.70;;;22.00;70.80;;;;;;5025165;28;20038;-52
2023/07/03 05:40:40;;;;;;;10.68;6.88;;;22.00;70.70;;;;;;5027592;28;20102;-51
2023/07/03 05:43:05;;;;;;;8.88;6.72;;;22.10;70.70;;;;;;5025033;28;20046;-51
2023/07/03 05:45:31;;;;;;;8.57;6.47;;;22.10;70.80;;;;;;5025688;28;20041;-51
2023/07/03 05:47:56;;;;;;;8.93;6.68;;;22.10;70.70;;;;;;5027687;28;20081;-51
2023/07/03 05:50:22;;;;;;;11.82;6.60;;;22.10;70.60;;;;;;5028936;28;20054;-51
2023/07/03 05:52:48;;;;;;;11.00;6.95;;;22.10;70.60;;;;;;5021901;28;20053;-51
2023/07/03 05:55:14;;;;;;;11.07;6.75;;;22.10;70.60;;;;;;5018618;28;20085;-52
2023/07/03 05:57:39;;;;;;;10.38;6.88;;;22.10;70.60;;;;;;5024393;28;20041;-52
2023/07/03 06:00:13;;;;;;;13.20;6.75;;;22.10;70.70;;;;;;5025272;28;20038;-52
2023/07/03 06:02:45;;;;;;;11.25;7.07;;;22.10;70.70;;;;;;5024535;28;20018;-51
2023/07/03 06:05:11;;;;;;;11.00;6.78;;;22.10;70.80;;;;;;5026247;28;20030;-52
2023/07/03 06:07:37;;;;;;;15.63;7.68;;;22.10;70.80;;;;;;5014634;28;20033;-51
2023/07/03 06:10:03;;;;;;;11.15;6.20;;;22.10;70.80;;;;;;5005459;28;20027;-51
2023/07/03 06:12:29;;;;;;;12.55;7.13;;;22.10;70.80;;;;;;5006403;28;20045;-51
2023/07/03 06:14:59;;;;;;;13.65;7.38;;;22.10;70.90;;;;;;5012594;28;20030;-51
2023/07/03 06:17:26;;;;;;;14.48;6.93;;;22.10;71.60;;;;;;5005033;28;20493;-51
2023/07/03 06:19:51;;;;;;;13.38;7.65;;;22.10;70.90;;;;;;5024515;28;20057;-51
2023/07/03 06:22:17;;;;;;;16.30;7.38;;;22.10;70.90;;;;;;5017052;28;20486;-51
2023/07/03 06:24:43;;;;;;;10.38;7.18;;;22.10;70.90;;;;;;5008162;28;20060;-51
2023/07/03 06:27:08;;;;;;;18.55;7.57;;;22.10;70.90;;;;;;5018961;28;20026;-51
2023/07/03 06:29:34;;;;;;;14.63;7.18;;;22.10;70.90;;;;;;5006480;28;20022;-51
2023/07/03 06:31:59;;;;;;;12.45;6.95;;;22.10;71.00;;;;;;5012384;28;20052;-51
2023/07/03 06:34:25;;;;;;;11.43;7.18;;;22.20;71.00;;;;;;5025108;28;20022;-51
2023/07/03 06:36:50;;;;;;;14.18;7.45;;;22.20;71.00;;;;;;5025664;28;20026;-52
2023/07/03 06:39:16;;;;;;;15.52;6.90;;;22.20;70.90;;;;;;5024961;28;20018;-51
2023/07/03 06:41:41;;;;;;;15.10;7.68;;;22.20;70.80;;;;;;5004009;28;20106;-51
2023/07/03 06:44:14;;;;;;;11.57;7.57;;;22.30;70.80;;;;;;5024933;28;20026;-51
2023/07/03 06:46:40;;;;;;;12.48;6.55;;;22.30;70.60;;;;;;5011843;28;20026;-52
2023/07/03 06:49:06;;;;;;;14.45;7.32;;;22.30;70.60;;;;;;5011742;28;20030;-51
2023/07/03 06:51:31;;;;;;;12.30;7.28;;;22.30;70.40;;;;;;5003228;28;20045;-52
2023/07/03 06:53:57;;;;;;;11.40;6.72;;;22.40;70.40;;;;;;5023628;28;20038;-52
2023/07/03 06:56:23;;;;;;;11.63;6.90;;;22.40;70.30;;;;;;5014332;28;20117;-51
2023/07/03 06:58:48;;;;;;;15.40;7.28;;;22.40;70.40;;;;;;5013339;28;20073;-52
2023/07/03 07:01:15;;;;;;;13.95;6.95;;;22.40;70.40;;;;;;5020541;28;20038;-51
2023/07/03 07:03:40;;;;;;;10.75;7.15;;;22.40;70.40;;;;;;5011461;28;20474;-51
2023/07/03 07:06:10;;;;;;;14.63;7.25;;;22.40;70.30;;;;;;5006587;28;20034;-51
2023/07/03 07:08:36;;;;;;;14.77;7.20;;;22.40;70.20;;;;;;5020412;28;20026;-51
2023/07/03 07:11:01;;;;;;;18.42;7.70;;;22.50;70.20;;;;;;5025362;28;20030;-52
2023/07/03 07:13:27;;;;;;;13.15;6.80;;;22.50;70.00;;;;;;5010601;28;20058;-52
2023/07/03 07:15:52;;;;;;;12.77;7.25;;;22.50;69.80;;;;;;5008567;28;20108;-51
2023/07/03 07:18:18;;;;;;;12.90;6.65;;;22.50;69.80;;;;;;5021426;28;20113;-52
2023/07/03 07:20:43;;;;;;;14.85;7.40;;;22.50;69.70;;;;;;5017780;28;20026;-51
2023/07/03 07:23:09;;;;;;;22.95;6.45;;;22.50;69.50;;;;;;5014627;28;20124;-51
2023/07/03 07:25:35;;;;;;;24.50;8.60;;;22.50;69.30;;;;;;5010448;28;20042;-52
2023/07/03 07:28:01;;;;;;;22.08;8.07;;;22.60;69.40;;;;;;4996454;28;20026;-51
2023/07/03 07:30:27;;;;;;;21.88;7.90;;;22.60;69.20;;;;;;5015621;28;20065;-51
2023/07/03 07:32:52;;;;;;;21.83;7.63;;;22.60;68.80;;;;;;5006673;28;20029;-51
2023/07/03 07:35:18;;;;;;;197.48;29.00;;;22.60;68.70;;;;;;5017779;28;20036;-51
2023/07/03 07:37:43;;;;;;;66.70;13.52;;;22.60;68.50;;;;;;5015437;28;20034;-51
2023/07/03 07:40:09;;;;;;;62.65;12.13;;;22.60;68.10;;;;;;5007825;28;20037;-52
2023/07/03 07:42:36;;;;;;;42.88;9.40;;;22.50;68.40;;;;;;5006638;28;20037;-52
2023/07/03 07:45:01;;;;;;;33.20;9.20;;;22.50;68.40;;;;;;5014864;28;20034;-52
2023/07/03 07:47:28;;;;;;;41.97;10.02;;;22.50;68.10;;;;;;5026603;28;20026;-52
2023/07/03 07:49:53;;;;;;;32.92;9.13;;;22.50;67.80;;;;;;5017259;28;20040;-51
2023/07/03 07:52:19;;;;;;;34.08;9.20;;;22.50;67.40;;;;;;4998477;28;20097;-51
2023/07/03 07:54:44;;;;;;;32.33;8.65;;;22.60;67.60;;;;;;5015626;28;20532;-52
2023/07/03 07:57:10;;;;;;;40.17;9.15;;;22.60;67.70;;;;;;5021210;28;20109;-52
2023/07/03 07:59:36;;;;;;;30.50;8.55;;;22.60;67.30;;;;;;5016231;28;20026;-51
2023/07/03 08:02:01;;;;;;;27.00;7.82;;;22.60;67.40;;;;;;5025223;28;20030;-52
2023/07/03 08:04:27;;;;;;;22.77;8.20;;;22.60;67.40;;;;;;5011764;28;20030;-51
2023/07/03 08:06:52;;;;;;;21.38;8.23;;;22.60;67.30;;;;;;5022435;28;20466;-52
2023/07/03 08:09:18;;;;;;;24.92;8.43;;;22.60;67.20;;;;;;5019802;28;20104;-51
2023/07/03 08:11:44;;;;;;;53.28;10.13;;;22.60;67.20;;;;;;5019679;28;20504;-51
2023/07/03 08:14:10;;;;;;;33.70;8.60;;;22.50;66.80;;;;;;5022703;28;20042;-51
2023/07/03 08:16:35;;;;;;;25.55;8.20;;;22.50;66.80;;;;;;5012457;28;20041;-52
2023/07/03 08:19:01;;;;;;;34.78;9.10;;;22.50;66.90;;;;;;5016821;28;20030;-52
2023/07/03 08:21:26;;;;;;;37.75;8.95;;;22.60;66.80;;;;;;5033331;28;20034;-52
2023/07/03 08:23:52;;;;;;;39.08;8.68;;;22.60;66.80;;;;;;5013538;28;20057;-51
2023/07/03 08:26:19;;;;;;;41.47;9.50;;;22.60;67.40;;;;;;4984531;28;20026;-51
2023/07/03 08:28:44;;;;;;;28.70;8.40;;;22.60;66.80;;;;;;5029569;28;20483;-52
2023/07/03 08:31:10;;;;;;;37.80;8.77;;;22.60;67.00;;;;;;5018496;28;20038;-51
2023/07/03 08:33:36;;;;;;;31.25;9.15;;;22.60;67.00;;;;;;5016684;28;20030;-51
2023/07/03 08:36:01;;;;;;;27.98;8.30;;;22.60;66.70;;;;;;5015306;28;20474;-52
2023/07/03 08:38:27;;;;;;;36.65;9.02;;;22.60;67.10;;;;;;5014904;28;20072;-52
2023/07/03 08:40:59;;;;;;;31.58;7.75;;;22.70;66.70;;;;;;5007297;28;20048;-52
2023/07/03 08:43:30;;;;;;;25.92;7.82;;;22.70;66.70;;;;;;5005287;28;20041;-52
2023/07/03 08:45:55;;;;;;;34.58;8.63;;;22.70;66.90;;;;;;4989324;28;20482;-52
2023/07/03 08:48:23;;;;;;;26.40;7.45;;;22.70;66.90;;;;;;5012483;28;20029;-51
2023/07/03 08:50:56;;;;;;;28.48;7.85;;;22.70;66.80;;;;;;5004213;28;20061;-51
2023/07/03 08:53:41;;;;;;;28.98;8.38;;;22.70;66.80;;;;;;5026736;28;20053;-51
2023/07/03 08:56:16;;;;;;;29.80;8.27;;;22.70;67.60;;;;;;5014067;28;20042;-52
2023/07/03 08:58:42;;;;;;;22.80;8.68;;;22.70;67.00;;;;;;5021273;28;20029;-51
2023/07/03 09:01:20;;;;;;;26.63;7.82;;;22.70;67.20;;;;;;5026553;28;20040;-51
2023/07/03 09:04:08;;;;;;;41.33;8.90;;;22.70;67.10;;;;;;5031064;28;20034;-52
2023/07/03 09:06:41;;;;;;;22.15;7.82;;;22.80;67.30;;;;;;5004452;28;20045;-51
2023/07/03 09:09:25;;;;;;;34.95;9.27;;;22.80;67.10;;;;;;5004909;28;20057;-51
2023/07/03 09:12:07;;;;;;;22.40;7.50;;;22.80;67.20;;;;;;5016649;28;20072;-51
2023/07/03 09:14:37;;;;;;;59.58;11.55;;;22.90;67.10;;;;;;5001912;28;20064;-51
2023/07/03 09:17:07;;;;;;;45.75;11.00;;;22.90;67.10;;;;;;5013103;28;20061;-51
2023/07/03 09:19:33;;;;;;;29.88;9.30;;;22.90;67.20;;;;;;4992113;28;20665;-51
2023/07/03 09:21:59;;;;;;;34.40;8.80;;;23.00;67.10;;;;;;5009635;28;20026;-51
2023/07/03 09:24:26;;;;;;;33.90;8.60;;;23.10;67.20;;;;;;5008370;28;20032;-52
2023/07/03 09:27:04;;;;;;;22.80;8.27;;;23.10;67.20;;;;;;5009962;28;20509;-51
2023/07/03 09:29:29;;;;;;;30.80;7.88;;;23.10;67.30;;;;;;5025488;28;20105;-51
2023/07/03 09:31:55;;;;;;;39.22;9.35;;;23.10;67.00;;;;;;5025605;28;20037;-51
2023/07/03 09:34:21;;;;;;;42.25;10.20;;;23.20;67.10;;;;;;5008970;28;20089;-52
2023/07/03 09:36:57;;;;;;;37.55;9.63;;;23.20;67.10;;;;;;5021602;28;20067;-52
2023/07/03 09:39:23;;;;;;;43.50;9.88;;;23.30;67.00;;;;;;5011995;28;20028;-52
2023/07/03 09:41:49;;;;;;;34.22;9.43;;;23.20;66.80;;;;;;5026027;28;20049;-52
2023/07/03 09:44:17;;;;;;;37.70;9.07;;;23.30;66.90;;;;;;5018701;28;20018;-51
2023/07/03 09:46:43;;;;;;;31.63;8.50;;;23.30;66.90;;;;;;5021133;28;20032;-51
2023/07/03 09:49:14;;;;;;;39.03;9.38;;;23.30;66.90;;;;;;5023589;28;20030;-52
2023/07/03 09:51:40;;;;;;;35.17;9.27;;;23.40;66.80;;;;;;5024008;28;20033;-52
2023/07/03 09:54:07;;;;;;;26.17;8.20;;;23.40;66.70;;;;;;5017950;28;20045;-51
2023/07/03 09:56:32;;;;;;;38.70;9.80;;;23.50;66.80;;;;;;5019153;28;20034;-52
2023/07/03 09:59:03;;;;;;;31.13;9.30;;;23.50;66.60;;;;;;5020136;28;20104;-51
2023/07/03 10:01:30;;;;;;;34.33;8.77;;;23.50;66.40;;;;;;5003357;28;20038;-51
2023/07/03 10:04:10;;;;;;;43.10;8.50;;;23.50;66.50;;;;;;5014881;28;20028;-51
2023/07/03 10:06:36;;;;;;;47.33;9.65;;;23.50;66.40;;;;;;5020419;28;20029;-52
2023/07/03 10:09:07;;;;;;;50.70;10.93;;;23.60;66.50;;;;;;5012149;28;20033;-51
2023/07/03 10:11:44;;;;;;;36.28;10.20;;;23.60;66.60;;;;;;5016848;28;20042;-51
2023/07/03 10:14:13;;;;;;;40.53;9.13;;;23.60;66.60;;;;;;5016752;28;20033;-51
2023/07/03 10:16:39;;;;;;;28.13;9.23;;;23.60;66.70;;;;;;5017423;28;20046;-51
2023/07/03 10:19:05;;;;;;;30.05;9.18;;;23.60;66.70;;;;;;5011892;28;20110;-51
2023/07/03 10:21:30;;;;;;;35.88;9.30;;;23.60;66.60;;;;;;5003719;28;20033;-51
2023/07/03 10:23:56;;;;;;;29.13;9.20;;;23.60;66.70;;;;;;5016010;28;20041;-51
2023/07/03 10:26:28;;;;;;;30.13;9.90;;;23.60;67.40;;;;;;4999990;28;20032;-51
2023/07/03 10:28:56;;;;;;;42.45;10.13;;;23.70;66.90;;;;;;5003079;28;20117;-52
2023/07/03 10:31:55;;;;;;;34.45;9.20;;;23.70;66.90;;;;;;5015198;28;20085;-52
2023/07/03 10:34:57;;;;;;;27.25;8.63;;;23.70;66.90;;;;;;5013207;28;20552;-52
2023/07/03 10:37:23;;;;;;;50.80;11.15;;;23.70;67.00;;;;;;4996390;28;20137;-52
2023/07/03 10:40:12;;;;;;;42.10;10.52;;;23.80;66.90;;;;;;5020222;28;20030;-51
2023/07/03 10:42:55;;;;;;;51.30;11.82;;;23.80;66.90;;;;;;5016648;28;20097;-51
2023/07/03 10:45:21;;;;;;;63.13;12.65;;;23.90;66.80;;;;;;5018602;28;20045;-51
2023/07/03 10:47:53;;;;;;;52.88;11.65;;;23.90;66.70;;;;;;5013067;28;20026;-51
2023/07/03 10:50:19;;;;;;;38.40;9.90;;;23.90;66.60;;;;;;5012529;28;20098;-52
2023/07/03 10:53:04;;;;;;;45.30;10.05;;;24.00;66.70;;;;;;5012574;28;20029;-52
2023/07/03 10:56:06;;;;;;;35.53;8.77;;;24.10;66.60;;;;;;5006245;28;20057;-52
2023/07/03 10:58:56;;;;;;;39.80;9.38;;;24.10;66.40;;;;;;5012406;28;20065;-52
2023/07/03 11:01:39;;;;;;;32.10;9.45;;;24.20;66.20;;;;;;5018753;28;20022;-52
2023/07/03 11:04:25;;;;;;;31.75;8.65;;;24.30;66.10;;;;;;5013365;28;20471;-52
2023/07/03 11:07:37;;;;;;;28.33;8.70;;;24.40;65.90;;;;;;5009018;28;20034;-52
2023/07/03 11:10:13;;;;;;;35.05;8.82;;;24.40;65.80;;;;;;5009016;28;20034;-52
2023/07/03 11:12:51;;;;;;;24.85;8.70;;;24.50;65.70;;;;;;5028518;28;20489;-52
2023/07/03 11:15:57;;;;;;;26.30;9.20;;;24.60;65.40;;;;;;5029648;28;20034;-52
2023/07/03 11:18:48;;;;;;;23.08;8.45;;;24.70;65.20;;;;;;5013127;28;20018;-51
2023/07/03 11:21:41;;;;;;;23.10;8.38;;;24.70;64.90;;;;;;5008599;28;20042;-52
2023/07/03 11:24:28;;;;;;;28.73;8.23;;;24.80;64.90;;;;;;5017551;28;20078;-52
2023/07/03 11:27:04;;;;;;;26.20;8.32;;;24.90;64.80;;;;;;5025921;28;20026;-51
2023/07/03 11:29:30;;;;;;;24.58;8.32;;;25.00;64.90;;;;;;5027067;28;20036;-51
2023/07/03 11:31:55;;;;;;;20.23;8.00;;;25.00;64.70;;;;;;5019590;28;20086;-51
2023/07/03 11:34:21;;;;;;;19.63;8.65;;;25.10;64.80;;;;;;5023764;28;20029;-52
2023/07/03 11:36:50;;;;;;;19.60;7.55;;;25.10;64.80;;;;;;4993454;28;20057;-51
2023/07/03 11:39:30;;;;;;;27.20;7.97;;;25.20;64.70;;;;;;5020159;28;20030;-52
2023/07/03 11:42:02;;;;;;;24.83;8.30;;;25.30;64.80;;;;;;5009564;28;20034;-52
2023/07/03 11:44:27;;;;;;;17.27;8.57;;;25.40;64.60;;;;;;5021851;28;20085;-51
2023/07/03 11:47:26;;;;;;;19.00;7.65;;;25.40;64.60;;;;;;5029041;28;20084;-52
2023/07/03 11:49:58;;;;;;;17.83;7.95;;;25.40;64.90;;;;;;5028254;28;20026;-52
2023/07/03 11:52:29;;;;;;;22.58;7.75;;;25.50;64.90;;;;;;5027039;28;20026;-52
2023/07/03 11:55:02;;;;;;;19.52;8.07;;;25.50;64.70;;;;;;5027049;28;20474;-52
2023/07/03 11:57:29;;;;;;;20.77;7.82;;;25.60;64.70;;;;;;5027213;28;20053;-52
2023/07/03 12:00:00;;;;;;;16.65;7.53;;;25.70;64.70;;;;;;5028301;28;20104;-52
2023/07/03 12:02:25;;;;;;;19.52;7.32;;;25.80;64.70;;;;;;5011509;28;20034;-52
2023/07/03 12:04:53;;;;;;;22.02;7.93;;;25.90;64.50;;;;;;5028178;28;20037;-52
2023/07/03 12:07:18;;;;;;;20.98;7.28;;;26.00;64.60;;;;;;5027755;28;20034;-52
2023/07/03 12:09:44;;;;;;;31.77;9.80;;;26.00;64.40;;;;;;5028545;28;20021;-52
2023/07/03 12:12:20;;;;;;;38.15;9.77;;;26.10;64.30;;;;;;5010403;28;20073;-52
2023/07/03 12:15:01;;;;;;;48.80;9.90;;;26.20;64.20;;;;;;5030168;28;20028;-52
2023/07/03 12:17:32;;;;;;;36.42;10.13;;;26.30;64.00;;;;;;5009970;28;20028;-52
2023/07/03 12:20:12;;;;;;;47.30;10.75;;;26.40;63.70;;;;;;5022347;28;20034;-51
2023/07/03 12:22:42;;;;;;;37.03;9.80;;;26.50;63.90;;;;;;5026628;28;20037;-52
2023/07/03 12:25:09;;;;;;;41.15;10.15;;;26.50;63.60;;;;;;5028969;28;20018;-52
2023/07/03 12:27:39;;;;;;;45.25;11.07;;;26.60;63.40;;;;;;5019790;28;20022;-52
2023/07/03 12:30:11;;;;;;;53.05;10.90;;;26.70;63.50;;;;;;5025760;28;20053;-52
2023/07/03 12:32:36;;;;;;;45.83;10.38;;;26.70;63.10;;;;;;5024367;28;20080;-52
2023/07/03 12:35:31;;;;;;;53.10;12.05;;;26.80;63.00;;;;;;5023255;28;20041;-52
2023/07/03 12:37:59;;;;;;;73.78;13.48;;;26.90;63.10;;;;;;5012636;28;20044;-52
2023/07/03 12:40:25;;;;;;;55.17;11.60;;;27.00;62.80;;;;;;5024555;28;20037;-52
2023/07/03 12:42:55;;;;;;;56.85;12.35;;;27.00;63.00;;;;;;5019812;28;20418;-52
2023/07/03 12:45:23;;;;;;;51.13;11.95;;;27.10;62.40;;;;;;5016273;28;20053;-52